Time;durP1;ratioP1;P1;durP2;ratioP2;P2;SDS_P1;SDS_P2;PMS_P1;PMS_P2;Temp;Humidity;BMP_temperature;BMP_pressure;BME280_temperature;BME280_humidity;BME280_pressure;Samples;Min_cycle;Max_cycle;Signal;HPM_P1;HPM_P2
2021/01/10 00:00:34;;;;;;;8.88;7.60;;;4.80;99.90;;;;;;5009700;28;20029;-72
2021/01/10 00:03:00;;;;;;;9.05;7.47;;;4.80;99.90;;;;;;5012647;28;20039;-72
2021/01/10 00:05:39;;;;;;;9.57;6.57;;;4.80;99.90;;;;;;5014034;28;20037;-72
2021/01/10 00:08:05;;;;;;;9.23;7.25;;;4.80;99.90;;;;;;5010012;28;20029;-72
2021/01/10 00:10:31;;;;;;;13.23;8.18;;;4.80;99.90;;;;;;5012296;28;20033;-72
2021/01/10 00:12:58;;;;;;;11.32;7.38;;;4.80;99.90;;;;;;5012918;28;20109;-72
2021/01/10 00:15:24;;;;;;;11.00;8.60;;;4.80;99.90;;;;;;5012837;28;20033;-72
2021/01/10 00:17:50;;;;;;;9.10;6.75;;;4.70;99.90;;;;;;5013050;28;20042;-72
2021/01/10 00:20:20;;;;;;;10.98;7.22;;;4.70;99.90;;;;;;5013801;28;20474;-73
2021/01/10 00:22:53;;;;;;;9.15;7.15;;;4.80;99.90;;;;;;5012784;28;20385;-72
2021/01/10 00:25:20;;;;;;;10.52;8.60;;;4.80;99.90;;;;;;5012502;28;20105;-73
2021/01/10 00:27:46;;;;;;;8.75;6.15;;;4.80;99.90;;;;;;5011836;28;20054;-72
2021/01/10 00:30:16;;;;;;;10.13;7.88;;;4.80;99.90;;;;;;5004884;28;20026;-72
2021/01/10 00:33:08;;;;;;;9.05;7.07;;;4.70;99.90;;;;;;4994441;28;20382;-75
2021/01/10 00:35:34;;;;;;;10.40;7.82;;;4.80;99.90;;;;;;5000863;28;20037;-72
2021/01/10 00:38:00;;;;;;;11.25;7.82;;;4.80;99.90;;;;;;5010257;28;20053;-72
2021/01/10 00:40:27;;;;;;;9.15;8.02;;;4.80;99.90;;;;;;5010054;28;20150;-72
2021/01/10 00:42:53;;;;;;;11.13;7.93;;;4.80;99.90;;;;;;5017118;28;20045;-72
2021/01/10 00:45:20;;;;;;;9.20;6.88;;;4.80;99.90;;;;;;5014218;28;20034;-72
2021/01/10 00:47:46;;;;;;;11.52;8.13;;;4.80;99.90;;;;;;5005266;28;20660;-72
2021/01/10 00:50:16;;;;;;;10.18;6.47;;;4.90;99.90;;;;;;5008342;28;20044;-72
2021/01/10 00:52:42;;;;;;;12.23;9.27;;;4.90;99.90;;;;;;5017244;28;20112;-72
2021/01/10 00:55:08;;;;;;;8.13;6.43;;;4.80;99.90;;;;;;5016570;28;20053;-73
2021/01/10 00:57:34;;;;;;;9.18;7.93;;;4.80;99.90;;;;;;5008158;28;20120;-72
2021/01/10 01:00:00;;;;;;;8.73;7.07;;;4.80;99.90;;;;;;5011115;28;20050;-72
2021/01/10 01:02:26;;;;;;;12.00;8.55;;;4.80;99.90;;;;;;5012253;28;20027;-72
2021/01/10 01:04:52;;;;;;;10.43;6.97;;;4.80;99.90;;;;;;5013640;28;20022;-72
2021/01/10 01:07:18;;;;;;;11.80;7.72;;;4.80;99.90;;;;;;5015753;28;20038;-73
2021/01/10 01:09:43;;;;;;;11.10;7.00;;;4.80;99.90;;;;;;5014624;28;20114;-72
2021/01/10 01:12:09;;;;;;;8.13;7.28;;;4.80;99.90;;;;;;5010554;28;20093;-72
2021/01/10 01:14:35;;;;;;;11.27;7.03;;;4.80;99.90;;;;;;5014393;28;20121;-72
2021/01/10 01:17:01;;;;;;;9.57;7.75;;;4.80;99.90;;;;;;5014777;28;20025;-73
2021/01/10 01:19:27;;;;;;;8.52;6.50;;;4.80;99.90;;;;;;5015911;28;20414;-72
2021/01/10 01:21:53;;;;;;;8.95;6.25;;;4.80;99.90;;;;;;5012775;28;20030;-72
2021/01/10 01:24:21;;;;;;;8.02;6.05;;;4.90;99.90;;;;;;5014070;28;20502;-73
2021/01/10 01:26:47;;;;;;;10.02;8.02;;;4.90;99.90;;;;;;5008601;28;20030;-71
2021/01/10 01:29:14;;;;;;;9.18;7.13;;;4.80;99.90;;;;;;5015130;28;20026;-71
2021/01/10 01:31:40;;;;;;;9.38;6.97;;;4.90;99.90;;;;;;5015538;28;20094;-71
2021/01/10 01:34:06;;;;;;;9.40;4.72;;;4.90;99.90;;;;;;5014203;28;20393;-72
2021/01/10 01:36:32;;;;;;;8.55;6.93;;;4.90;99.90;;;;;;5012456;28;20030;-71
2021/01/10 01:39:07;;;;;;;7.38;4.50;;;4.90;99.90;;;;;;5012426;28;20026;-71
2021/01/10 01:41:43;;;;;;;7.78;5.97;;;4.90;99.90;;;;;;5013324;28;20121;-73
2021/01/10 01:44:10;;;;;;;8.02;7.10;;;4.90;99.90;;;;;;5015747;28;20036;-70
2021/01/10 01:46:37;;;;;;;14.30;8.48;;;4.90;99.90;;;;;;5012929;28;20544;-74
2021/01/10 01:49:11;;;;;;;6.30;5.32;;;4.90;99.90;;;;;;5014307;28;20049;-75
2021/01/10 01:51:38;;;;;;;7.28;6.57;;;4.90;99.90;;;;;;5014723;28;20033;-71
2021/01/10 01:54:05;;;;;;;7.55;6.25;;;4.90;99.90;;;;;;5013875;28;20083;-71
2021/01/10 01:56:31;;;;;;;6.60;5.90;;;4.90;99.90;;;;;;5014997;28;20079;-72
2021/01/10 01:59:08;;;;;;;10.10;7.50;;;4.90;99.90;;;;;;5013587;28;20048;-72
2021/01/10 02:01:36;;;;;;;9.27;6.55;;;4.90;99.90;;;;;;5014452;28;20036;-73
2021/01/10 02:04:28;;;;;;;12.15;7.95;;;4.90;99.90;;;;;;5012201;28;20018;-72
2021/01/10 02:07:16;;;;;;;8.27;7.18;;;4.90;99.90;;;;;;5011769;28;20049;-72
2021/01/10 02:09:46;;;;;;;9.80;8.25;;;4.90;99.90;;;;;;5011644;28;20030;-72
2021/01/10 02:12:13;;;;;;;14.02;9.90;;;4.90;99.90;;;;;;5014483;28;20052;-71
2021/01/10 02:14:56;;;;;;;11.85;9.02;;;4.90;99.90;;;;;;5014070;28;20612;-71
2021/01/10 02:17:25;;;;;;;9.20;7.82;;;4.90;99.90;;;;;;5009340;28;20144;-72
2021/01/10 02:20:07;;;;;;;9.68;8.43;;;4.80;99.90;;;;;;5005562;28;20038;-71
2021/01/10 02:22:38;;;;;;;10.30;9.00;;;4.90;99.90;;;;;;5013862;28;20506;-70
2021/01/10 02:25:05;;;;;;;7.45;6.10;;;4.80;99.90;;;;;;5012023;28;20053;-71
2021/01/10 02:27:31;;;;;;;9.50;8.52;;;4.90;99.90;;;;;;5002932;28;20028;-72
2021/01/10 02:29:58;;;;;;;10.93;8.35;;;4.90;99.90;;;;;;5001727;28;20032;-75
2021/01/10 02:32:26;;;;;;;11.27;8.10;;;4.90;99.90;;;;;;5006644;28;20022;-73
2021/01/10 02:34:54;;;;;;;12.68;9.60;;;4.90;99.90;;;;;;5013212;28;20052;-74
2021/01/10 02:37:41;;;;;;;12.35;8.57;;;4.90;99.90;;;;;;5014464;28;20037;-70
2021/01/10 02:40:25;;;;;;;11.32;8.00;;;4.90;99.90;;;;;;5011393;28;20025;-71
2021/01/10 02:43:14;;;;;;;9.32;7.63;;;5.00;99.90;;;;;;5013830;28;20039;-70
2021/01/10 02:45:42;;;;;;;11.15;8.90;;;4.90;99.90;;;;;;5014457;28;20021;-74
2021/01/10 02:48:12;;;;;;;12.68;9.23;;;4.90;99.90;;;;;;5009642;28;20030;-71
2021/01/10 02:50:38;;;;;;;10.80;8.52;;;4.90;99.90;;;;;;5012980;28;20048;-70
2021/01/10 02:53:04;;;;;;;11.10;7.15;;;4.90;99.90;;;;;;5012960;28;20600;-70
2021/01/10 02:55:31;;;;;;;12.73;9.13;;;4.90;99.90;;;;;;5013442;28;20028;-74
2021/01/10 02:58:06;;;;;;;9.60;7.97;;;4.90;99.90;;;;;;5011267;28;20080;-75
2021/01/10 03:00:32;;;;;;;11.60;8.07;;;4.90;99.90;;;;;;5012551;28;20026;-71
2021/01/10 03:02:59;;;;;;;9.13;7.10;;;4.90;99.90;;;;;;5013207;28;20026;-71
2021/01/10 03:05:32;;;;;;;12.98;8.57;;;4.90;99.90;;;;;;5013687;28;20041;-73
2021/01/10 03:07:58;;;;;;;12.68;7.80;;;4.90;99.90;;;;;;5012495;28;20037;-73
2021/01/10 03:10:32;;;;;;;12.07;8.63;;;4.90;99.90;;;;;;5012283;28;20078;-73
2021/01/10 03:12:58;;;;;;;11.77;9.80;;;4.90;99.90;;;;;;5013299;28;20026;-72
2021/01/10 03:15:27;;;;;;;8.65;7.20;;;4.90;99.90;;;;;;5011704;28;20028;-72
2021/01/10 03:17:53;;;;;;;10.25;8.73;;;4.90;99.90;;;;;;5013597;28;20030;-72
2021/01/10 03:20:22;;;;;;;13.80;9.63;;;4.90;99.90;;;;;;5013876;28;20024;-73
2021/01/10 03:22:50;;;;;;;10.90;9.60;;;4.90;99.90;;;;;;5013102;28;20026;-73
2021/01/10 03:25:21;;;;;;;14.38;9.68;;;4.90;99.90;;;;;;5012333;28;20136;-72
2021/01/10 03:27:48;;;;;;;10.27;8.32;;;4.90;99.90;;;;;;5012273;28;20068;-72
2021/01/10 03:30:18;;;;;;;11.60;9.50;;;4.90;99.90;;;;;;5010831;28;20063;-72
2021/01/10 03:32:45;;;;;;;10.80;8.05;;;4.90;99.90;;;;;;5012936;28;20022;-73
2021/01/10 03:35:15;;;;;;;10.23;7.13;;;4.90;99.90;;;;;;5012177;28;20076;-73
2021/01/10 03:37:41;;;;;;;11.32;8.13;;;5.00;99.90;;;;;;5011000;28;20125;-72
2021/01/10 03:40:08;;;;;;;10.15;8.45;;;4.90;99.90;;;;;;5009281;28;20068;-72
2021/01/10 03:42:35;;;;;;;10.98;8.00;;;4.90;99.90;;;;;;5013126;28;20401;-73
2021/01/10 03:45:02;;;;;;;10.70;9.35;;;5.00;99.90;;;;;;5012535;28;20045;-73
2021/01/10 03:47:31;;;;;;;9.65;7.45;;;5.00;99.90;;;;;;5014096;28;20065;-73
2021/01/10 03:49:57;;;;;;;11.85;8.55;;;5.00;99.90;;;;;;5012703;28;20034;-72
2021/01/10 03:52:23;;;;;;;15.65;9.27;;;4.90;99.90;;;;;;5011794;28;20418;-72
2021/01/10 03:54:48;;;;;;;10.65;8.27;;;4.90;99.90;;;;;;5011045;28;20045;-73
2021/01/10 03:57:14;;;;;;;10.05;9.02;;;4.90;99.90;;;;;;5011124;28;20022;-72
2021/01/10 03:59:40;;;;;;;10.68;9.30;;;4.90;99.90;;;;;;5009536;28;20125;-72
2021/01/10 04:02:06;;;;;;;9.73;7.68;;;4.80;99.90;;;;;;5012545;28;20026;-72
2021/01/10 04:04:32;;;;;;;8.35;7.32;;;4.90;99.90;;;;;;5014660;28;20022;-73
2021/01/10 04:06:58;;;;;;;15.85;10.80;;;4.90;99.90;;;;;;5012014;28;20544;-72
2021/01/10 04:09:24;;;;;;;13.77;8.48;;;4.90;99.90;;;;;;5012106;28;20026;-73
2021/01/10 04:11:50;;;;;;;11.45;9.05;;;4.90;99.90;;;;;;5012745;28;20478;-73
2021/01/10 04:14:16;;;;;;;14.30;10.02;;;4.90;99.90;;;;;;5013360;28;20057;-72
2021/01/10 04:16:41;;;;;;;9.35;8.30;;;4.90;99.90;;;;;;5017535;28;20030;-72
2021/01/10 04:19:07;;;;;;;12.48;8.70;;;4.90;99.90;;;;;;5017023;28;20097;-75
2021/01/10 04:21:34;;;;;;;9.73;8.57;;;4.90;99.90;;;;;;5016789;28;20025;-74
2021/01/10 04:24:00;;;;;;;9.27;8.20;;;4.80;99.90;;;;;;5016938;28;20033;-72
2021/01/10 04:26:28;;;;;;;12.68;8.98;;;4.80;99.90;;;;;;5017618;28;20067;-72
2021/01/10 04:28:54;;;;;;;12.27;9.18;;;4.80;99.90;;;;;;5015037;28;20030;-73
2021/01/10 04:31:19;;;;;;;12.75;6.82;;;4.90;99.90;;;;;;5016251;28;20052;-72
2021/01/10 04:33:46;;;;;;;15.43;10.10;;;4.80;99.90;;;;;;5015886;28;20057;-72
2021/01/10 04:36:11;;;;;;;13.90;9.95;;;4.80;99.90;;;;;;5015738;28;20464;-72
2021/01/10 04:38:40;;;;;;;9.20;8.25;;;4.80;99.90;;;;;;5016740;28;20132;-72
2021/01/10 04:41:06;;;;;;;12.13;9.30;;;4.80;99.90;;;;;;5028173;28;20026;-72
2021/01/10 04:43:32;;;;;;;8.57;7.65;;;4.80;99.90;;;;;;5012401;28;20026;-72
2021/01/10 04:45:58;;;;;;;12.10;10.27;;;4.80;99.90;;;;;;5017049;28;20033;-72
2021/01/10 04:48:25;;;;;;;12.07;8.25;;;4.80;99.90;;;;;;5016191;28;20100;-72
2021/01/10 04:50:51;;;;;;;12.10;9.23;;;4.80;99.90;;;;;;5016978;28;20034;-72
2021/01/10 04:53:20;;;;;;;14.57;8.45;;;4.80;99.90;;;;;;5016148;28;20044;-72
2021/01/10 04:55:47;;;;;;;13.27;9.50;;;4.80;99.90;;;;;;5016656;28;20026;-72
2021/01/10 04:58:14;;;;;;;10.80;8.75;;;4.70;99.90;;;;;;5015940;28;20080;-72
2021/01/10 05:00:43;;;;;;;10.23;7.43;;;4.70;99.90;;;;;;5016333;28;20141;-72
2021/01/10 05:03:13;;;;;;;12.43;8.10;;;4.80;99.90;;;;;;5012345;28;20044;-72
2021/01/10 05:05:39;;;;;;;11.90;8.20;;;4.70;99.90;;;;;;5017932;28;20052;-72
2021/01/10 05:08:08;;;;;;;9.75;7.78;;;4.70;99.90;;;;;;5013594;28;20034;-73
2021/01/10 05:10:34;;;;;;;16.80;11.70;;;4.80;99.90;;;;;;5016056;28;20033;-72
2021/01/10 05:13:00;;;;;;;14.07;9.70;;;4.80;99.90;;;;;;5015017;28;20072;-72
2021/01/10 05:15:29;;;;;;;7.53;6.75;;;4.80;99.90;;;;;;5015241;28;20425;-73
2021/01/10 05:17:56;;;;;;;11.32;8.95;;;4.70;99.90;;;;;;5014754;28;20030;-73
2021/01/10 05:20:33;;;;;;;11.75;9.75;;;4.80;99.90;;;;;;5016069;28;20064;-72
2021/01/10 05:23:00;;;;;;;13.98;9.05;;;4.80;99.90;;;;;;5014630;28;20573;-73
2021/01/10 05:25:28;;;;;;;11.60;9.88;;;4.70;99.90;;;;;;5016481;28;20018;-73
2021/01/10 05:27:55;;;;;;;11.32;9.52;;;4.80;99.90;;;;;;5014160;28;20465;-72
2021/01/10 05:30:32;;;;;;;14.20;10.20;;;4.70;99.90;;;;;;5016688;28;20026;-72
2021/01/10 05:33:06;;;;;;;13.82;8.48;;;4.70;99.90;;;;;;5016027;28;20033;-72
2021/01/10 05:35:52;;;;;;;11.90;9.00;;;4.80;99.90;;;;;;5014944;28;20389;-72
2021/01/10 05:38:28;;;;;;;10.35;8.27;;;4.70;99.90;;;;;;5009966;28;20029;-72
2021/01/10 05:40:55;;;;;;;12.48;10.10;;;4.80;99.90;;;;;;5013923;28;20026;-72
2021/01/10 05:43:23;;;;;;;13.68;8.60;;;4.80;99.90;;;;;;5015866;28;20033;-72
2021/01/10 05:45:48;;;;;;;13.93;9.52;;;4.70;99.90;;;;;;5013701;28;20543;-72
2021/01/10 05:48:16;;;;;;;13.10;8.00;;;4.80;99.90;;;;;;5015055;28;20026;-74
2021/01/10 05:50:47;;;;;;;12.35;9.23;;;4.70;99.90;;;;;;5016394;28;20022;-72
2021/01/10 05:53:19;;;;;;;11.43;8.85;;;4.70;99.90;;;;;;5015637;28;20080;-72
2021/01/10 05:55:57;;;;;;;9.13;6.88;;;4.70;99.90;;;;;;5014583;28;20025;-73
2021/01/10 05:58:24;;;;;;;8.63;7.47;;;4.70;99.90;;;;;;5014852;28;20037;-72
2021/01/10 06:00:53;;;;;;;9.60;8.48;;;4.70;99.90;;;;;;5012443;28;20068;-73
2021/01/10 06:03:24;;;;;;;9.77;7.78;;;4.80;99.90;;;;;;5015493;28;20030;-72
2021/01/10 06:05:58;;;;;;;14.32;9.52;;;4.80;99.90;;;;;;5014497;28;20141;-73
2021/01/10 06:08:26;;;;;;;11.35;8.90;;;4.70;99.90;;;;;;5013038;28;20048;-72
2021/01/10 06:10:52;;;;;;;12.15;9.05;;;4.70;99.90;;;;;;5014716;28;20037;-72
2021/01/10 06:13:19;;;;;;;14.32;10.13;;;4.70;99.90;;;;;;5015387;28;20124;-73
2021/01/10 06:15:48;;;;;;;11.25;8.90;;;4.70;99.90;;;;;;5015607;28;20030;-73
2021/01/10 06:18:15;;;;;;;10.65;8.13;;;4.70;99.90;;;;;;5014427;28;20026;-72
2021/01/10 06:20:42;;;;;;;9.00;7.65;;;4.70;99.90;;;;;;5016534;28;20026;-73
2021/01/10 06:23:08;;;;;;;9.10;8.10;;;4.70;99.90;;;;;;5015417;28;20022;-72
2021/01/10 06:25:38;;;;;;;11.80;8.07;;;4.70;99.90;;;;;;5017468;28;20017;-72
2021/01/10 06:28:08;;;;;;;11.57;8.75;;;4.70;99.90;;;;;;5013559;28;20036;-72
2021/01/10 06:30:37;;;;;;;16.20;9.45;;;4.70;99.90;;;;;;5013896;28;20052;-72
2021/01/10 06:33:10;;;;;;;9.32;7.75;;;4.70;99.90;;;;;;5013381;28;20505;-72
2021/01/10 06:35:38;;;;;;;11.00;8.57;;;4.70;99.90;;;;;;5014702;28;20025;-72
2021/01/10 06:38:06;;;;;;;11.93;8.05;;;4.70;99.90;;;;;;5011767;28;20026;-73
2021/01/10 06:40:36;;;;;;;10.98;7.97;;;4.60;99.90;;;;;;5013392;28;20577;-72
2021/01/10 06:43:04;;;;;;;11.95;7.95;;;4.70;99.90;;;;;;5013641;28;20034;-73
2021/01/10 06:45:38;;;;;;;11.30;8.20;;;4.70;99.90;;;;;;5014442;28;20048;-72
2021/01/10 06:48:04;;;;;;;14.68;9.07;;;4.60;99.90;;;;;;5010761;28;20030;-72
2021/01/10 06:50:32;;;;;;;6.88;6.13;;;4.70;99.90;;;;;;5014275;28;20026;-74
2021/01/10 06:53:07;;;;;;;8.98;7.20;;;4.60;99.90;;;;;;5013858;28;20382;-72
2021/01/10 06:55:34;;;;;;;12.85;9.73;;;4.70;99.90;;;;;;5010945;28;20026;-72
2021/01/10 06:58:07;;;;;;;12.57;10.30;;;4.60;99.90;;;;;;5011920;28;20037;-73
2021/01/10 07:00:59;;;;;;;8.07;7.07;;;4.60;99.90;;;;;;5010228;28;20022;-72
2021/01/10 07:03:28;;;;;;;13.25;9.73;;;4.60;99.90;;;;;;5000057;28;20068;-73
2021/01/10 07:06:01;;;;;;;12.82;9.00;;;4.60;99.90;;;;;;5012165;28;20026;-72
2021/01/10 07:08:42;;;;;;;11.55;9.50;;;4.60;99.90;;;;;;4994495;28;20209;-72
2021/01/10 07:11:23;;;;;;;13.25;10.30;;;4.60;99.90;;;;;;5014990;28;20030;-73
2021/01/10 07:14:12;;;;;;;8.77;7.88;;;4.70;99.90;;;;;;5013253;28;20032;-72
2021/01/10 07:16:43;;;;;;;9.55;8.10;;;4.70;99.90;;;;;;5003318;28;20093;-74
2021/01/10 07:19:11;;;;;;;11.18;9.25;;;4.70;99.90;;;;;;5005884;28;20048;-72
2021/01/10 07:21:43;;;;;;;13.55;9.68;;;4.70;99.90;;;;;;5011667;28;20095;-72
2021/01/10 07:24:26;;;;;;;10.98;8.48;;;4.70;99.90;;;;;;5008495;28;20498;-72
2021/01/10 07:26:54;;;;;;;11.98;10.25;;;4.70;99.90;;;;;;5009365;28;20030;-72
2021/01/10 07:29:42;;;;;;;11.63;8.55;;;4.70;99.90;;;;;;5012601;28;20061;-72
2021/01/10 07:32:16;;;;;;;12.73;10.82;;;4.70;99.90;;;;;;5012097;28;20490;-72
2021/01/10 07:34:45;;;;;;;12.20;9.65;;;4.70;99.90;;;;;;5006059;28;20030;-71
2021/01/10 07:37:23;;;;;;;12.52;9.05;;;4.80;99.90;;;;;;5005680;28;20105;-73
2021/01/10 07:40:06;;;;;;;17.95;10.80;;;4.70;99.90;;;;;;5010566;28;20026;-71
2021/01/10 07:42:39;;;;;;;11.48;8.13;;;4.70;99.90;;;;;;5011961;28;20105;-71
2021/01/10 07:45:23;;;;;;;15.63;9.90;;;4.70;99.90;;;;;;5009916;28;20029;-71
2021/01/10 07:47:50;;;;;;;14.38;11.13;;;4.70;99.90;;;;;;5012310;28;20033;-74
2021/01/10 07:50:16;;;;;;;16.55;11.57;;;4.70;99.90;;;;;;5011489;28;20068;-71
2021/01/10 07:52:42;;;;;;;20.40;10.30;;;4.70;99.90;;;;;;5016487;28;20042;-72
2021/01/10 07:55:22;;;;;;;12.48;11.18;;;4.70;99.90;;;;;;5016392;28;20030;-71
2021/01/10 07:57:50;;;;;;;14.63;9.93;;;4.70;99.90;;;;;;5004842;28;20030;-72
2021/01/10 08:00:24;;;;;;;12.93;10.18;;;4.70;99.90;;;;;;5011133;28;20033;-71
2021/01/10 08:02:59;;;;;;;10.48;9.20;;;4.70;99.90;;;;;;5015453;28;20069;-72
2021/01/10 08:05:39;;;;;;;16.80;11.13;;;4.70;99.90;;;;;;5015350;28;20054;-71
2021/01/10 08:08:14;;;;;;;12.40;9.95;;;4.70;99.90;;;;;;5015990;28;20489;-72
2021/01/10 08:10:51;;;;;;;14.45;11.13;;;4.70;99.90;;;;;;5013527;28;20041;-71
2021/01/10 08:13:29;;;;;;;14.23;11.77;;;4.70;99.90;;;;;;5008979;28;20029;-71
2021/01/10 08:16:03;;;;;;;13.95;9.73;;;4.80;99.90;;;;;;5015905;28;20026;-71
2021/01/10 08:18:35;;;;;;;18.00;13.30;;;4.80;99.90;;;;;;5014402;28;20397;-72
2021/01/10 08:21:02;;;;;;;15.25;12.38;;;4.70;99.90;;;;;;5014271;28;20026;-72
2021/01/10 08:23:31;;;;;;;15.15;11.30;;;4.80;99.90;;;;;;5015069;28;20022;-72
2021/01/10 08:26:06;;;;;;;18.95;10.45;;;4.80;99.90;;;;;;5014465;28;20045;-72
2021/01/10 08:28:41;;;;;;;11.65;9.18;;;4.80;99.90;;;;;;5014096;28;20032;-71
2021/01/10 08:31:10;;;;;;;13.10;9.55;;;4.90;99.90;;;;;;5007674;28;20057;-72
2021/01/10 08:33:36;;;;;;;13.05;11.40;;;4.90;99.90;;;;;;5014609;28;20025;-72
2021/01/10 08:36:20;;;;;;;13.82;10.27;;;4.90;99.90;;;;;;5014606;28;20034;-71
2021/01/10 08:38:48;;;;;;;12.02;9.27;;;4.90;99.90;;;;;;5013415;28;20030;-72
2021/01/10 08:41:23;;;;;;;12.30;8.82;;;4.90;99.90;;;;;;5014292;28;20022;-71
2021/01/10 08:43:55;;;;;;;13.57;11.05;;;4.90;99.90;;;;;;5014691;28;20021;-72
2021/01/10 08:46:23;;;;;;;14.10;9.73;;;4.90;99.90;;;;;;5010603;28;20637;-72
2021/01/10 08:48:49;;;;;;;14.82;11.23;;;4.90;99.90;;;;;;5008411;28;20117;-73
2021/01/10 08:51:50;;;;;;;11.15;8.88;;;4.80;99.90;;;;;;4996548;28;20049;-73
2021/01/10 08:54:22;;;;;;;14.20;12.13;;;4.90;99.90;;;;;;4935890;29;20701;-71
2021/01/10 08:56:53;;;;;;;13.05;10.95;;;4.80;99.90;;;;;;4986405;28;20117;-71
2021/01/10 08:59:20;;;;;;;15.85;10.98;;;4.80;99.90;;;;;;4996093;28;20027;-71
2021/01/10 09:01:47;;;;;;;16.88;11.20;;;4.80;99.90;;;;;;5000969;28;20101;-72
2021/01/10 09:04:14;;;;;;;14.07;10.05;;;4.90;99.90;;;;;;5008260;28;20030;-71
2021/01/10 09:06:58;;;;;;;18.13;12.48;;;4.80;99.90;;;;;;5015091;28;20041;-73
2021/01/10 09:09:45;;;;;;;13.82;9.88;;;4.90;99.90;;;;;;5010030;28;20017;-73
2021/01/10 09:12:32;;;;;;;12.40;10.60;;;4.90;99.90;;;;;;5025205;28;20080;-71
2021/01/10 09:15:03;;;;;;;12.68;10.23;;;4.90;99.90;;;;;;5015370;28;20050;-71
2021/01/10 09:17:46;;;;;;;16.05;11.93;;;5.00;99.90;;;;;;5015203;28;20121;-71
2021/01/10 09:20:17;;;;;;;13.82;10.95;;;5.00;99.90;;;;;;5006294;28;20110;-71
2021/01/10 09:22:43;;;;;;;15.23;11.50;;;5.00;99.90;;;;;;4995484;28;20081;-71
2021/01/10 09:25:16;;;;;;;14.57;10.20;;;5.00;99.90;;;;;;4999952;28;20049;-71
2021/01/10 09:28:12;;;;;;;15.30;10.93;;;5.00;99.90;;;;;;5013777;28;20026;-70
2021/01/10 09:30:40;;;;;;;15.45;11.18;;;5.10;99.90;;;;;;5013909;28;20030;-73
2021/01/10 09:33:07;;;;;;;17.10;11.60;;;5.20;99.90;;;;;;5014993;28;20033;-71
2021/01/10 09:35:37;;;;;;;12.80;10.38;;;5.10;99.90;;;;;;5014935;28;20580;-73
2021/01/10 09:38:11;;;;;;;16.60;10.70;;;5.10;99.90;;;;;;5014571;28;20030;-73
2021/01/10 09:40:37;;;;;;;10.95;8.43;;;5.20;99.90;;;;;;5015505;28;20061;-70
2021/01/10 09:43:03;;;;;;;13.55;10.45;;;5.20;99.90;;;;;;5014701;28;20520;-72
2021/01/10 09:45:34;;;;;;;17.02;10.23;;;5.30;99.90;;;;;;5014595;28;20049;-72
2021/01/10 09:48:03;;;;;;;14.00;10.27;;;5.30;99.90;;;;;;5014719;28;20057;-71
2021/01/10 09:50:30;;;;;;;13.75;11.05;;;5.30;99.90;;;;;;5014931;28;20038;-71
2021/01/10 09:52:55;;;;;;;13.60;9.55;;;5.40;99.90;;;;;;5014648;28;20056;-72
2021/01/10 09:55:25;;;;;;;10.85;9.75;;;5.40;99.90;;;;;;5014602;28;20029;-73
2021/01/10 09:57:54;;;;;;;9.95;7.68;;;5.40;99.90;;;;;;5009657;28;20044;-71
2021/01/10 10:00:21;;;;;;;14.05;8.90;;;5.30;99.90;;;;;;5012249;28;20541;-73
2021/01/10 10:02:50;;;;;;;17.02;8.32;;;5.40;99.90;;;;;;5014432;28;20026;-71
2021/01/10 10:05:25;;;;;;;11.38;9.50;;;5.40;99.90;;;;;;5014034;28;20022;-72
2021/01/10 10:08:01;;;;;;;10.13;9.05;;;5.40;99.90;;;;;;5015618;28;20068;-73
2021/01/10 10:10:28;;;;;;;8.05;7.25;;;5.40;99.90;;;;;;5017498;28;20022;-72
2021/01/10 10:13:06;;;;;;;9.65;7.80;;;5.50;99.90;;;;;;5014162;28;20456;-72
2021/01/10 10:15:49;;;;;;;12.13;7.70;;;5.60;99.90;;;;;;5008483;28;20478;-71
2021/01/10 10:18:28;;;;;;;10.50;8.77;;;5.50;99.90;;;;;;4994709;28;20042;-74
2021/01/10 10:20:55;;;;;;;11.00;8.45;;;5.40;99.90;;;;;;5013849;28;20029;-70
2021/01/10 10:23:21;;;;;;;9.13;7.20;;;5.40;99.90;;;;;;5013686;28;20108;-71
2021/01/10 10:25:48;;;;;;;10.60;8.57;;;5.40;99.90;;;;;;5012589;28;20026;-71
2021/01/10 10:28:15;;;;;;;9.57;7.57;;;5.40;99.90;;;;;;5011513;28;20153;-72
2021/01/10 10:30:42;;;;;;;8.95;7.35;;;5.40;99.90;;;;;;5001362;28;20490;-71
2021/01/10 10:33:09;;;;;;;9.18;8.15;;;5.50;99.90;;;;;;4996176;28;20033;-74
2021/01/10 10:35:35;;;;;;;8.77;7.85;;;5.40;99.90;;;;;;5013720;28;20029;-71
2021/01/10 10:38:02;;;;;;;11.25;8.75;;;5.40;99.90;;;;;;5012915;28;20084;-71
2021/01/10 10:40:28;;;;;;;11.13;8.38;;;5.40;99.90;;;;;;5013629;28;20022;-71
2021/01/10 10:42:54;;;;;;;9.40;7.07;;;5.40;99.90;;;;;;5015376;28;20152;-72
2021/01/10 10:45:20;;;;;;;13.75;8.75;;;5.40;99.90;;;;;;5012610;28;20146;-71
2021/01/10 10:47:46;;;;;;;10.88;9.55;;;5.40;99.90;;;;;;5003081;28;20483;-70
2021/01/10 10:50:12;;;;;;;10.05;7.35;;;5.30;99.90;;;;;;5008806;28;20045;-71
2021/01/10 10:52:38;;;;;;;8.15;7.00;;;5.30;99.90;;;;;;4996804;28;20541;-71
2021/01/10 10:55:05;;;;;;;8.48;7.55;;;5.30;99.90;;;;;;5002041;28;20068;-71
2021/01/10 10:57:31;;;;;;;8.55;7.13;;;5.10;99.90;;;;;;5013585;28;20030;-70
2021/01/10 10:59:57;;;;;;;8.60;6.07;;;5.10;99.90;;;;;;5012679;28;20554;-71
2021/01/10 11:02:23;;;;;;;9.73;8.75;;;5.10;99.90;;;;;;5002964;28;20512;-71
2021/01/10 11:04:49;;;;;;;8.65;7.05;;;5.20;99.90;;;;;;5014344;28;20532;-71
2021/01/10 11:07:16;;;;;;;8.00;6.90;;;5.20;99.90;;;;;;5004673;28;20041;-71
2021/01/10 11:09:43;;;;;;;9.57;7.03;;;5.10;99.90;;;;;;5013946;28;20022;-71
2021/01/10 11:12:10;;;;;;;7.20;5.97;;;5.10;99.90;;;;;;5012477;28;20128;-71
2021/01/10 11:14:36;;;;;;;8.13;6.53;;;5.20;99.90;;;;;;5014728;28;20397;-71
2021/01/10 11:17:11;;;;;;;8.93;7.03;;;5.20;99.90;;;;;;5013985;28;20112;-71
2021/01/10 11:19:37;;;;;;;8.30;7.47;;;5.10;99.90;;;;;;5009450;28;20516;-70
2021/01/10 11:22:05;;;;;;;8.30;6.70;;;5.20;99.90;;;;;;4994331;28;20527;-71
2021/01/10 11:24:35;;;;;;;10.38;7.50;;;5.20;99.90;;;;;;4999168;28;20105;-70
2021/01/10 11:27:02;;;;;;;10.73;8.27;;;5.20;99.90;;;;;;5007408;28;20040;-70
2021/01/10 11:29:28;;;;;;;12.75;8.95;;;5.00;99.90;;;;;;5011296;28;20037;-70
2021/01/10 11:31:54;;;;;;;9.73;7.68;;;5.00;99.90;;;;;;5012949;28;20049;-71
2021/01/10 11:34:21;;;;;;;9.93;8.27;;;5.00;99.90;;;;;;5011331;28;20046;-70
2021/01/10 11:36:55;;;;;;;11.60;6.88;;;5.10;99.90;;;;;;5013422;28;20021;-70
2021/01/10 11:39:27;;;;;;;7.43;6.65;;;4.90;99.90;;;;;;5011060;28;20068;-70
2021/01/10 11:41:55;;;;;;;9.48;8.45;;;4.90;99.90;;;;;;5013626;28;20374;-70
2021/01/10 11:44:23;;;;;;;10.30;7.68;;;4.80;99.90;;;;;;5010451;28;20034;-71
2021/01/10 11:46:52;;;;;;;7.30;6.53;;;4.90;99.90;;;;;;5012280;28;20442;-71
2021/01/10 11:49:20;;;;;;;8.02;6.18;;;4.90;99.90;;;;;;5012841;28;20137;-71
2021/01/10 11:51:46;;;;;;;10.05;7.93;;;4.90;99.90;;;;;;5012837;28;20037;-71
2021/01/10 11:54:12;;;;;;;9.63;6.88;;;4.90;99.90;;;;;;5010122;28;20033;-71
2021/01/10 11:56:46;;;;;;;9.85;8.30;;;4.80;99.90;;;;;;5011250;28;20026;-71
2021/01/10 11:59:14;;;;;;;9.60;8.63;;;4.80;99.90;;;;;;5003985;28;20105;-71
2021/01/10 12:01:41;;;;;;;9.77;8.50;;;4.90;99.90;;;;;;5011264;28;20026;-70
2021/01/10 12:04:07;;;;;;;9.70;8.80;;;4.90;99.90;;;;;;5009562;28;20021;-71
2021/01/10 12:06:35;;;;;;;9.68;7.68;;;4.70;99.90;;;;;;5011319;28;20727;-71
2021/01/10 12:09:02;;;;;;;10.13;7.35;;;4.70;99.90;;;;;;5012264;28;20036;-71
2021/01/10 12:11:28;;;;;;;8.23;6.68;;;4.60;99.90;;;;;;5011502;28;20445;-71
2021/01/10 12:13:55;;;;;;;12.38;8.00;;;4.60;99.90;;;;;;5011714;28;20018;-71
2021/01/10 12:16:21;;;;;;;8.30;7.45;;;4.60;99.90;;;;;;5011439;28;20032;-70
2021/01/10 12:18:47;;;;;;;9.23;8.25;;;4.50;99.90;;;;;;5011648;28;20053;-71
2021/01/10 12:21:14;;;;;;;11.50;9.40;;;4.60;99.90;;;;;;5013073;28;20057;-71
2021/01/10 12:23:41;;;;;;;11.00;8.15;;;4.70;99.90;;;;;;5009601;28;20033;-72
2021/01/10 12:26:15;;;;;;;7.55;6.75;;;4.80;99.90;;;;;;5011659;28;20084;-72
2021/01/10 12:28:42;;;;;;;7.68;6.68;;;4.80;99.90;;;;;;5012097;28;20076;-72
2021/01/10 12:31:09;;;;;;;9.25;5.18;;;4.80;99.90;;;;;;5010166;28;20091;-72
2021/01/10 12:33:36;;;;;;;9.18;7.75;;;4.80;99.90;;;;;;5012794;28;20030;-70
2021/01/10 12:36:04;;;;;;;9.65;7.22;;;4.80;99.90;;;;;;5012264;28;20055;-71
2021/01/10 12:38:30;;;;;;;7.50;6.10;;;4.80;99.90;;;;;;5015674;28;20056;-70
2021/01/10 12:40:56;;;;;;;8.38;6.50;;;4.90;99.90;;;;;;5010985;28;20109;-71
2021/01/10 12:43:22;;;;;;;8.57;6.63;;;4.90;99.90;;;;;;5014549;28;20022;-70
2021/01/10 12:45:48;;;;;;;7.32;6.63;;;4.90;99.90;;;;;;5015631;28;20057;-70
2021/01/10 12:48:19;;;;;;;6.40;5.80;;;4.90;99.90;;;;;;5008759;28;20485;-71
2021/01/10 12:50:58;;;;;;;8.90;6.68;;;4.90;99.90;;;;;;5015429;28;20156;-70
2021/01/10 12:53:27;;;;;;;7.00;5.90;;;4.90;99.90;;;;;;5013010;28;20029;-71
2021/01/10 12:55:54;;;;;;;7.05;5.95;;;4.90;99.90;;;;;;5016401;28;20030;-70
2021/01/10 12:58:21;;;;;;;7.78;6.90;;;4.70;99.90;;;;;;5012617;28;20378;-70
2021/01/10 13:00:47;;;;;;;6.68;5.88;;;4.70;99.90;;;;;;5016110;28;20032;-70